sensor_id;sensor_type;location;lat;lon;timestamp;temperature;humidity
62583;DHT22;48641;51.676;5.808;2023-05-07T00:00:24;19.30;63.10
62583;DHT22;48641;51.676;5.808;2023-05-07T00:02:51;19.20;63.10
62583;DHT22;48641;51.676;5.808;2023-05-07T00:05:16;19.20;63.10
62583;DHT22;48641;51.676;5.808;2023-05-07T00:07:42;19.20;63.10
62583;DHT22;48641;51.676;5.808;2023-05-07T00:10:09;19.30;63.10
62583;DHT22;48641;51.676;5.808;2023-05-07T00:12:35;19.30;63.20
62583;DHT22;48641;51.676;5.808;2023-05-07T00:15:02;19.30;63.10
62583;DHT22;48641;51.676;5.808;2023-05-07T00:17:29;19.20;63.10
62583;DHT22;48641;51.676;5.808;2023-05-07T00:19:55;19.30;63.10
62583;DHT22;48641;51.676;5.808;2023-05-07T00:22:20;19.20;63.10
62583;DHT22;48641;51.676;5.808;2023-05-07T00:24:46;19.20;63.10
62583;DHT22;48641;51.676;5.808;2023-05-07T00:27:12;19.20;63.10
62583;DHT22;48641;51.676;5.808;2023-05-07T00:29:37;19.20;63.00
62583;DHT22;48641;51.676;5.808;2023-05-07T00:32:03;19.20;63.10
62583;DHT22;48641;51.676;5.808;2023-05-07T00:34:29;19.20;63.00
62583;DHT22;48641;51.676;5.808;2023-05-07T00:36:54;19.20;63.00
62583;DHT22;48641;51.676;5.808;2023-05-07T00:39:20;19.20;63.10
62583;DHT22;48641;51.676;5.808;2023-05-07T00:41:46;19.20;63.00
62583;DHT22;48641;51.676;5.808;2023-05-07T00:44:13;19.20;63.00
62583;DHT22;48641;51.676;5.808;2023-05-07T00:46:38;19.20;63.00
62583;DHT22;48641;51.676;5.808;2023-05-07T00:49:04;19.20;63.00
62583;DHT22;48641;51.676;5.808;2023-05-07T00:51:32;19.20;62.90
62583;DHT22;48641;51.676;5.808;2023-05-07T00:54:01;19.20;63.00
62583;DHT22;48641;51.676;5.808;2023-05-07T00:56:27;19.20;63.00
62583;DHT22;48641;51.676;5.808;2023-05-07T00:58:53;19.20;62.90
62583;DHT22;48641;51.676;5.808;2023-05-07T01:01:19;19.20;63.00
62583;DHT22;48641;51.676;5.808;2023-05-07T01:03:45;19.20;63.00
62583;DHT22;48641;51.676;5.808;2023-05-07T01:06:11;19.20;62.90
62583;DHT22;48641;51.676;5.808;2023-05-07T01:08:41;19.20;62.90
62583;DHT22;48641;51.676;5.808;2023-05-07T01:11:08;19.20;62.90
62583;DHT22;48641;51.676;5.808;2023-05-07T01:13:35;19.20;62.90
62583;DHT22;48641;51.676;5.808;2023-05-07T01:16:01;19.20;62.90
62583;DHT22;48641;51.676;5.808;2023-05-07T01:18:27;19.20;62.90
62583;DHT22;48641;51.676;5.808;2023-05-07T01:20:56;19.20;62.90
62583;DHT22;48641;51.676;5.808;2023-05-07T01:23:23;19.20;62.90
62583;DHT22;48641;51.676;5.808;2023-05-07T01:25:54;19.20;62.90
62583;DHT22;48641;51.676;5.808;2023-05-07T01:28:20;19.20;62.90
62583;DHT22;48641;51.676;5.808;2023-05-07T01:30:55;19.20;62.90
62583;DHT22;48641;51.676;5.808;2023-05-07T01:33:22;19.10;62.80
62583;DHT22;48641;51.676;5.808;2023-05-07T01:35:51;19.10;62.80
62583;DHT22;48641;51.676;5.808;2023-05-07T01:38:18;19.20;62.90
62583;DHT22;48641;51.676;5.808;2023-05-07T01:40:45;19.10;62.80
62583;DHT22;48641;51.676;5.808;2023-05-07T01:43:11;19.10;62.80
62583;DHT22;48641;51.676;5.808;2023-05-07T01:45:36;19.10;62.70
62583;DHT22;48641;51.676;5.808;2023-05-07T01:48:03;19.10;62.70
62583;DHT22;48641;51.676;5.808;2023-05-07T01:50:30;19.10;62.70
62583;DHT22;48641;51.676;5.808;2023-05-07T01:52:57;19.10;62.70
62583;DHT22;48641;51.676;5.808;2023-05-07T01:55:22;19.10;62.70
62583;DHT22;48641;51.676;5.808;2023-05-07T01:57:49;19.20;62.80
62583;DHT22;48641;51.676;5.808;2023-05-07T02:00:14;19.10;62.70
62583;DHT22;48641;51.676;5.808;2023-05-07T02:02:40;19.10;62.70
62583;DHT22;48641;51.676;5.808;2023-05-07T02:05:06;19.10;62.70
62583;DHT22;48641;51.676;5.808;2023-05-07T02:07:32;19.10;62.70
62583;DHT22;48641;51.676;5.808;2023-05-07T02:09:57;19.10;62.70
62583;DHT22;48641;51.676;5.808;2023-05-07T02:12:23;19.10;62.70
62583;DHT22;48641;51.676;5.808;2023-05-07T02:14:49;19.10;62.70
62583;DHT22;48641;51.676;5.808;2023-05-07T02:17:14;19.10;63.60
62583;DHT22;48641;51.676;5.808;2023-05-07T02:19:40;19.10;62.70
62583;DHT22;48641;51.676;5.808;2023-05-07T02:22:06;19.10;62.70
62583;DHT22;48641;51.676;5.808;2023-05-07T02:24:32;19.10;62.70
62583;DHT22;48641;51.676;5.808;2023-05-07T02:26:57;19.10;62.70
62583;DHT22;48641;51.676;5.808;2023-05-07T02:29:23;19.10;62.70
62583;DHT22;48641;51.676;5.808;2023-05-07T02:31:48;19.10;62.70
62583;DHT22;48641;51.676;5.808;2023-05-07T02:34:18;19.10;62.70
62583;DHT22;48641;51.676;5.808;2023-05-07T02:36:44;19.10;62.70
62583;DHT22;48641;51.676;5.808;2023-05-07T02:39:11;19.10;62.70
62583;DHT22;48641;51.676;5.808;2023-05-07T02:41:37;19.10;62.70
62583;DHT22;48641;51.676;5.808;2023-05-07T02:44:02;19.10;62.70
62583;DHT22;48641;51.676;5.808;2023-05-07T02:46:28;19.10;62.60
62583;DHT22;48641;51.676;5.808;2023-05-07T02:48:54;19.10;62.70
62583;DHT22;48641;51.676;5.808;2023-05-07T02:51:20;19.10;63.60
62583;DHT22;48641;51.676;5.808;2023-05-07T02:53:46;19.00;62.60
62583;DHT22;48641;51.676;5.808;2023-05-07T02:56:12;19.10;62.60
62583;DHT22;48641;51.676;5.808;2023-05-07T02:58:38;19.10;62.60
62583;DHT22;48641;51.676;5.808;2023-05-07T03:01:07;19.10;62.70
62583;DHT22;48641;51.676;5.808;2023-05-07T03:03:33;19.00;63.60
62583;DHT22;48641;51.676;5.808;2023-05-07T03:05:59;19.00;62.60
62583;DHT22;48641;51.676;5.808;2023-05-07T03:08:24;19.00;62.60
62583;DHT22;48641;51.676;5.808;2023-05-07T03:10:50;19.00;62.60
62583;DHT22;48641;51.676;5.808;2023-05-07T03:13:16;19.10;62.60
62583;DHT22;48641;51.676;5.808;2023-05-07T03:15:42;19.00;62.60
62583;DHT22;48641;51.676;5.808;2023-05-07T03:18:07;19.00;62.60
62583;DHT22;48641;51.676;5.808;2023-05-07T03:20:33;19.00;62.60
62583;DHT22;48641;51.676;5.808;2023-05-07T03:22:59;19.00;62.60
62583;DHT22;48641;51.676;5.808;2023-05-07T03:25:25;19.00;62.60
62583;DHT22;48641;51.676;5.808;2023-05-07T03:27:51;19.00;62.60
62583;DHT22;48641;51.676;5.808;2023-05-07T03:30:16;19.00;62.60
62583;DHT22;48641;51.676;5.808;2023-05-07T03:32:42;19.00;62.60
62583;DHT22;48641;51.676;5.808;2023-05-07T03:35:08;19.00;62.50
62583;DHT22;48641;51.676;5.808;2023-05-07T03:37:33;19.00;62.60
62583;DHT22;48641;51.676;5.808;2023-05-07T03:39:59;19.00;62.60
62583;DHT22;48641;51.676;5.808;2023-05-07T03:42:25;19.00;62.60
62583;DHT22;48641;51.676;5.808;2023-05-07T03:44:51;19.00;62.60
62583;DHT22;48641;51.676;5.808;2023-05-07T03:47:16;19.00;62.60
62583;DHT22;48641;51.676;5.808;2023-05-07T03:49:42;19.00;62.60
62583;DHT22;48641;51.676;5.808;2023-05-07T03:52:07;19.00;62.60
62583;DHT22;48641;51.676;5.808;2023-05-07T03:54:33;19.00;62.60
62583;DHT22;48641;51.676;5.808;2023-05-07T03:56:59;19.00;62.60
62583;DHT22;48641;51.676;5.808;2023-05-07T03:59:24;19.00;62.60
62583;DHT22;48641;51.676;5.808;2023-05-07T04:01:50;19.00;62.60
62583;DHT22;48641;51.676;5.808;2023-05-07T04:04:16;19.00;62.60
62583;DHT22;48641;51.676;5.808;2023-05-07T04:06:41;19.00;62.60
62583;DHT22;48641;51.676;5.808;2023-05-07T04:09:10;19.00;62.60
62583;DHT22;48641;51.676;5.808;2023-05-07T04:11:36;18.90;62.50
62583;DHT22;48641;51.676;5.808;2023-05-07T04:14:01;19.00;62.60
62583;DHT22;48641;51.676;5.808;2023-05-07T04:16:27;18.90;62.50
62583;DHT22;48641;51.676;5.808;2023-05-07T04:18:53;18.90;62.60
62583;DHT22;48641;51.676;5.808;2023-05-07T04:21:19;19.00;62.60
62583;DHT22;48641;51.676;5.808;2023-05-07T04:23:46;19.00;62.60
62583;DHT22;48641;51.676;5.808;2023-05-07T04:26:12;18.90;62.60
62583;DHT22;48641;51.676;5.808;2023-05-07T04:28:38;18.90;62.50
62583;DHT22;48641;51.676;5.808;2023-05-07T04:31:04;18.90;62.50
62583;DHT22;48641;51.676;5.808;2023-05-07T04:33:31;18.90;62.60
62583;DHT22;48641;51.676;5.808;2023-05-07T04:35:56;18.90;62.50
62583;DHT22;48641;51.676;5.808;2023-05-07T04:38:22;18.90;62.60
62583;DHT22;48641;51.676;5.808;2023-05-07T04:40:49;18.90;62.50
62583;DHT22;48641;51.676;5.808;2023-05-07T04:43:14;18.90;62.50
62583;DHT22;48641;51.676;5.808;2023-05-07T04:45:41;18.90;62.50
62583;DHT22;48641;51.676;5.808;2023-05-07T04:48:08;18.90;62.50
62583;DHT22;48641;51.676;5.808;2023-05-07T04:50:34;18.90;62.50
62583;DHT22;48641;51.676;5.808;2023-05-07T04:52:59;18.90;62.60
62583;DHT22;48641;51.676;5.808;2023-05-07T04:55:25;18.90;62.50
62583;DHT22;48641;51.676;5.808;2023-05-07T04:57:51;18.90;62.60
62583;DHT22;48641;51.676;5.808;2023-05-07T05:00:17;18.90;62.50
62583;DHT22;48641;51.676;5.808;2023-05-07T05:02:45;18.90;62.50
62583;DHT22;48641;51.676;5.808;2023-05-07T05:05:10;18.90;62.50
62583;DHT22;48641;51.676;5.808;2023-05-07T05:07:36;18.90;62.50
62583;DHT22;48641;51.676;5.808;2023-05-07T05:10:03;18.90;62.50
62583;DHT22;48641;51.676;5.808;2023-05-07T05:12:31;18.90;62.50
62583;DHT22;48641;51.676;5.808;2023-05-07T05:14:56;18.90;62.50
62583;DHT22;48641;51.676;5.808;2023-05-07T05:17:23;18.90;62.60
62583;DHT22;48641;51.676;5.808;2023-05-07T05:19:48;18.90;62.50
62583;DHT22;48641;51.676;5.808;2023-05-07T05:22:14;18.80;62.60
62583;DHT22;48641;51.676;5.808;2023-05-07T05:24:39;18.90;62.60
62583;DHT22;48641;51.676;5.808;2023-05-07T05:27:05;18.90;62.60
62583;DHT22;48641;51.676;5.808;2023-05-07T05:29:30;18.80;62.50
62583;DHT22;48641;51.676;5.808;2023-05-07T05:31:57;18.80;62.50
62583;DHT22;48641;51.676;5.808;2023-05-07T05:34:22;18.80;62.50
62583;DHT22;48641;51.676;5.808;2023-05-07T05:36:48;18.90;62.60
62583;DHT22;48641;51.676;5.808;2023-05-07T05:39:14;18.90;62.60
62583;DHT22;48641;51.676;5.808;2023-05-07T05:41:39;18.80;62.60
62583;DHT22;48641;51.676;5.808;2023-05-07T05:44:05;18.90;62.60
62583;DHT22;48641;51.676;5.808;2023-05-07T05:46:30;18.90;62.60
62583;DHT22;48641;51.676;5.808;2023-05-07T05:48:56;18.90;62.60
62583;DHT22;48641;51.676;5.808;2023-05-07T05:51:22;18.90;62.60
62583;DHT22;48641;51.676;5.808;2023-05-07T05:53:48;18.90;62.60
62583;DHT22;48641;51.676;5.808;2023-05-07T05:56:14;18.80;62.60
62583;DHT22;48641;51.676;5.808;2023-05-07T05:58:40;18.80;62.60
62583;DHT22;48641;51.676;5.808;2023-05-07T06:01:06;18.90;62.60
62583;DHT22;48641;51.676;5.808;2023-05-07T06:03:32;18.80;62.50
62583;DHT22;48641;51.676;5.808;2023-05-07T06:05:58;18.90;62.60
62583;DHT22;48641;51.676;5.808;2023-05-07T06:08:23;18.80;63.50
62583;DHT22;48641;51.676;5.808;2023-05-07T06:10:49;18.80;62.60
62583;DHT22;48641;51.676;5.808;2023-05-07T06:13:15;18.80;62.60
62583;DHT22;48641;51.676;5.808;2023-05-07T06:15:40;18.80;62.60
62583;DHT22;48641;51.676;5.808;2023-05-07T06:18:06;18.80;62.50
62583;DHT22;48641;51.676;5.808;2023-05-07T06:20:31;18.80;62.60
62583;DHT22;48641;51.676;5.808;2023-05-07T06:22:57;18.80;62.60
62583;DHT22;48641;51.676;5.808;2023-05-07T06:25:23;18.80;62.60
62583;DHT22;48641;51.676;5.808;2023-05-07T06:27:48;18.80;62.60
62583;DHT22;48641;51.676;5.808;2023-05-07T06:30:14;18.80;62.60
62583;DHT22;48641;51.676;5.808;2023-05-07T06:32:40;18.80;62.60
62583;DHT22;48641;51.676;5.808;2023-05-07T06:35:06;18.80;62.60
62583;DHT22;48641;51.676;5.808;2023-05-07T06:37:32;18.80;62.60
62583;DHT22;48641;51.676;5.808;2023-05-07T06:40:00;18.80;62.60
62583;DHT22;48641;51.676;5.808;2023-05-07T06:42:25;18.80;62.70
62583;DHT22;48641;51.676;5.808;2023-05-07T06:44:52;18.80;62.60
62583;DHT22;48641;51.676;5.808;2023-05-07T06:47:18;18.80;62.60
62583;DHT22;48641;51.676;5.808;2023-05-07T06:49:43;18.80;62.60
62583;DHT22;48641;51.676;5.808;2023-05-07T06:52:09;18.80;62.60
62583;DHT22;48641;51.676;5.808;2023-05-07T06:54:35;18.80;62.60
62583;DHT22;48641;51.676;5.808;2023-05-07T06:57:01;18.80;62.60
62583;DHT22;48641;51.676;5.808;2023-05-07T06:59:26;18.80;62.60
62583;DHT22;48641;51.676;5.808;2023-05-07T07:01:52;18.80;62.60
62583;DHT22;48641;51.676;5.808;2023-05-07T07:04:17;18.80;62.60
62583;DHT22;48641;51.676;5.808;2023-05-07T07:06:43;18.80;62.70
62583;DHT22;48641;51.676;5.808;2023-05-07T07:09:08;18.80;62.60
62583;DHT22;48641;51.676;5.808;2023-05-07T07:11:34;18.80;62.70
62583;DHT22;48641;51.676;5.808;2023-05-07T07:14:01;18.80;62.60
62583;DHT22;48641;51.676;5.808;2023-05-07T07:16:26;18.80;62.70
62583;DHT22;48641;51.676;5.808;2023-05-07T07:18:52;18.80;62.60
62583;DHT22;48641;51.676;5.808;2023-05-07T07:21:18;18.80;62.60
62583;DHT22;48641;51.676;5.808;2023-05-07T07:23:43;18.80;62.60
62583;DHT22;48641;51.676;5.808;2023-05-07T07:26:09;18.80;62.70
62583;DHT22;48641;51.676;5.808;2023-05-07T07:28:34;18.80;62.70
62583;DHT22;48641;51.676;5.808;2023-05-07T07:31:00;18.80;62.70
62583;DHT22;48641;51.676;5.808;2023-05-07T07:33:26;18.70;62.60
62583;DHT22;48641;51.676;5.808;2023-05-07T07:35:52;18.70;63.50
62583;DHT22;48641;51.676;5.808;2023-05-07T07:38:17;18.80;62.70
62583;DHT22;48641;51.676;5.808;2023-05-07T07:40:43;18.80;62.70
62583;DHT22;48641;51.676;5.808;2023-05-07T07:43:09;18.70;62.60
62583;DHT22;48641;51.676;5.808;2023-05-07T07:45:35;18.80;62.70
62583;DHT22;48641;51.676;5.808;2023-05-07T07:48:00;18.70;62.60
62583;DHT22;48641;51.676;5.808;2023-05-07T07:50:26;18.80;62.70
62583;DHT22;48641;51.676;5.808;2023-05-07T07:52:52;18.80;62.70
62583;DHT22;48641;51.676;5.808;2023-05-07T07:55:20;18.70;62.60
62583;DHT22;48641;51.676;5.808;2023-05-07T07:57:48;18.70;62.60
62583;DHT22;48641;51.676;5.808;2023-05-07T08:00:15;18.70;62.60
62583;DHT22;48641;51.676;5.808;2023-05-07T08:02:40;18.70;62.60
62583;DHT22;48641;51.676;5.808;2023-05-07T08:05:06;18.70;62.60
62583;DHT22;48641;51.676;5.808;2023-05-07T08:07:32;18.70;62.60
62583;DHT22;48641;51.676;5.808;2023-05-07T08:09:58;18.70;62.60
62583;DHT22;48641;51.676;5.808;2023-05-07T08:12:24;18.70;62.60
62583;DHT22;48641;51.676;5.808;2023-05-07T08:14:49;18.80;62.70
62583;DHT22;48641;51.676;5.808;2023-05-07T08:17:15;18.70;62.60
62583;DHT22;48641;51.676;5.808;2023-05-07T08:19:42;18.70;62.70
62583;DHT22;48641;51.676;5.808;2023-05-07T08:22:09;18.70;62.70
62583;DHT22;48641;51.676;5.808;2023-05-07T08:24:34;18.80;62.70
62583;DHT22;48641;51.676;5.808;2023-05-07T08:27:00;18.80;62.70
62583;DHT22;48641;51.676;5.808;2023-05-07T08:29:25;18.70;62.70
62583;DHT22;48641;51.676;5.808;2023-05-07T08:31:51;18.70;62.70
62583;DHT22;48641;51.676;5.808;2023-05-07T08:34:17;18.70;62.80
62583;DHT22;48641;51.676;5.808;2023-05-07T08:36:42;18.70;62.80
62583;DHT22;48641;51.676;5.808;2023-05-07T08:39:08;18.80;62.80
62583;DHT22;48641;51.676;5.808;2023-05-07T08:41:34;18.70;62.80
62583;DHT22;48641;51.676;5.808;2023-05-07T08:44:02;18.80;62.90
62583;DHT22;48641;51.676;5.808;2023-05-07T08:46:31;18.80;62.90
62583;DHT22;48641;51.676;5.808;2023-05-07T08:48:57;18.70;62.90
62583;DHT22;48641;51.676;5.808;2023-05-07T08:51:22;18.70;63.00
62583;DHT22;48641;51.676;5.808;2023-05-07T08:53:49;18.70;63.00
62583;DHT22;48641;51.676;5.808;2023-05-07T08:56:16;18.70;62.90
62583;DHT22;48641;51.676;5.808;2023-05-07T08:58:43;18.70;63.00
62583;DHT22;48641;51.676;5.808;2023-05-07T09:01:10;18.80;63.00
62583;DHT22;48641;51.676;5.808;2023-05-07T09:03:38;18.80;64.00
62583;DHT22;48641;51.676;5.808;2023-05-07T09:06:04;18.70;62.90
62583;DHT22;48641;51.676;5.808;2023-05-07T09:08:32;18.70;63.20
62583;DHT22;48641;51.676;5.808;2023-05-07T09:10:57;18.70;63.20
62583;DHT22;48641;51.676;5.808;2023-05-07T09:13:23;18.70;63.20
62583;DHT22;48641;51.676;5.808;2023-05-07T09:15:48;18.70;63.20
62583;DHT22;48641;51.676;5.808;2023-05-07T09:18:14;18.70;63.10
62583;DHT22;48641;51.676;5.808;2023-05-07T09:20:41;18.70;63.10
62583;DHT22;48641;51.676;5.808;2023-05-07T09:23:07;18.80;63.20
62583;DHT22;48641;51.676;5.808;2023-05-07T09:25:34;18.80;63.20
62583;DHT22;48641;51.676;5.808;2023-05-07T09:28:01;18.70;63.10
62583;DHT22;48641;51.676;5.808;2023-05-07T09:30:31;18.80;63.10
62583;DHT22;48641;51.676;5.808;2023-05-07T09:33:03;18.80;63.10
62583;DHT22;48641;51.676;5.808;2023-05-07T09:35:29;18.80;63.20
62583;DHT22;48641;51.676;5.808;2023-05-07T09:37:56;18.80;63.10
62583;DHT22;48641;51.676;5.808;2023-05-07T09:40:27;18.80;63.10
62583;DHT22;48641;51.676;5.808;2023-05-07T09:42:53;18.80;63.10
62583;DHT22;48641;51.676;5.808;2023-05-07T09:45:25;18.80;63.10
62583;DHT22;48641;51.676;5.808;2023-05-07T09:47:55;18.80;64.00
62583;DHT22;48641;51.676;5.808;2023-05-07T09:50:26;18.80;63.00
62583;DHT22;48641;51.676;5.808;2023-05-07T09:52:54;18.80;63.00
62583;DHT22;48641;51.676;5.808;2023-05-07T09:55:21;18.80;63.00
62583;DHT22;48641;51.676;5.808;2023-05-07T09:57:52;18.80;63.00
62583;DHT22;48641;51.676;5.808;2023-05-07T10:00:22;18.80;63.00
62583;DHT22;48641;51.676;5.808;2023-05-07T10:02:49;18.80;63.00
62583;DHT22;48641;51.676;5.808;2023-05-07T10:05:18;18.80;63.00
62583;DHT22;48641;51.676;5.808;2023-05-07T10:07:44;18.80;63.00
62583;DHT22;48641;51.676;5.808;2023-05-07T10:10:10;18.80;63.00
62583;DHT22;48641;51.676;5.808;2023-05-07T10:12:40;18.80;62.90
62583;DHT22;48641;51.676;5.808;2023-05-07T10:15:10;18.90;63.00
62583;DHT22;48641;51.676;5.808;2023-05-07T10:17:38;18.80;62.90
62583;DHT22;48641;51.676;5.808;2023-05-07T10:20:05;18.80;62.90
62583;DHT22;48641;51.676;5.808;2023-05-07T10:22:45;18.90;63.00
62583;DHT22;48641;51.676;5.808;2023-05-07T10:25:18;18.90;62.90
62583;DHT22;48641;51.676;5.808;2023-05-07T10:27:45;18.80;62.90
62583;DHT22;48641;51.676;5.808;2023-05-07T10:30:38;18.90;63.00
62583;DHT22;48641;51.676;5.808;2023-05-07T10:33:07;18.80;62.90
62583;DHT22;48641;51.676;5.808;2023-05-07T10:35:45;18.90;63.00
62583;DHT22;48641;51.676;5.808;2023-05-07T10:38:12;18.80;64.00
62583;DHT22;48641;51.676;5.808;2023-05-07T10:40:38;18.80;63.00
62583;DHT22;48641;51.676;5.808;2023-05-07T10:43:05;18.80;63.10
62583;DHT22;48641;51.676;5.808;2023-05-07T10:45:31;18.90;63.10
62583;DHT22;48641;51.676;5.808;2023-05-07T10:48:10;18.80;63.00
62583;DHT22;48641;51.676;5.808;2023-05-07T10:50:37;18.90;63.00
62583;DHT22;48641;51.676;5.808;2023-05-07T10:55:48;18.90;62.90
62583;DHT22;48641;51.676;5.808;2023-05-07T10:58:29;18.90;63.10
62583;DHT22;48641;51.676;5.808;2023-05-07T11:00:58;18.90;63.00
62583;DHT22;48641;51.676;5.808;2023-05-07T11:03:24;18.80;63.00
62583;DHT22;48641;51.676;5.808;2023-05-07T11:11:18;18.90;63.10
62583;DHT22;48641;51.676;5.808;2023-05-07T11:13:49;18.90;63.70
62583;DHT22;48641;51.676;5.808;2023-05-07T11:16:18;18.90;63.30
62583;DHT22;48641;51.676;5.808;2023-05-07T11:18:51;19.00;63.30
62583;DHT22;48641;51.676;5.808;2023-05-07T11:21:38;19.00;63.20
62583;DHT22;48641;51.676;5.808;2023-05-07T11:24:05;19.10;63.10
62583;DHT22;48641;51.676;5.808;2023-05-07T11:26:42;19.10;63.10
62583;DHT22;48641;51.676;5.808;2023-05-07T11:29:16;19.20;63.10
62583;DHT22;48641;51.676;5.808;2023-05-07T11:31:42;19.30;63.10
62583;DHT22;48641;51.676;5.808;2023-05-07T11:34:08;19.30;63.00
62583;DHT22;48641;51.676;5.808;2023-05-07T11:36:34;19.40;62.90
62583;DHT22;48641;51.676;5.808;2023-05-07T11:38:59;19.40;62.80
62583;DHT22;48641;51.676;5.808;2023-05-07T11:41:43;19.40;62.70
62583;DHT22;48641;51.676;5.808;2023-05-07T11:44:08;19.50;62.60
62583;DHT22;48641;51.676;5.808;2023-05-07T11:46:34;19.50;62.70
62583;DHT22;48641;51.676;5.808;2023-05-07T11:49:00;19.50;62.60
62583;DHT22;48641;51.676;5.808;2023-05-07T11:51:26;19.50;62.60
62583;DHT22;48641;51.676;5.808;2023-05-07T11:53:52;19.50;62.50
62583;DHT22;48641;51.676;5.808;2023-05-07T11:56:18;19.60;62.60
62583;DHT22;48641;51.676;5.808;2023-05-07T11:58:48;19.50;62.50
62583;DHT22;48641;51.676;5.808;2023-05-07T12:01:15;19.60;62.50
62583;DHT22;48641;51.676;5.808;2023-05-07T12:03:43;19.60;62.50
62583;DHT22;48641;51.676;5.808;2023-05-07T12:06:10;19.60;62.50
62583;DHT22;48641;51.676;5.808;2023-05-07T12:08:38;19.60;62.50
62583;DHT22;48641;51.676;5.808;2023-05-07T12:11:08;19.60;62.50
62583;DHT22;48641;51.676;5.808;2023-05-07T12:13:35;19.60;62.50
62583;DHT22;48641;51.676;5.808;2023-05-07T12:16:01;19.60;62.40
62583;DHT22;48641;51.676;5.808;2023-05-07T12:18:28;19.60;62.40
62583;DHT22;48641;51.676;5.808;2023-05-07T12:20:55;19.60;62.40
62583;DHT22;48641;51.676;5.808;2023-05-07T12:23:22;19.70;62.40
62583;DHT22;48641;51.676;5.808;2023-05-07T12:25:48;19.70;62.40
62583;DHT22;48641;51.676;5.808;2023-05-07T12:28:14;19.70;62.40
62583;DHT22;48641;51.676;5.808;2023-05-07T12:30:42;19.70;62.30
62583;DHT22;48641;51.676;5.808;2023-05-07T12:33:08;19.70;62.30
62583;DHT22;48641;51.676;5.808;2023-05-07T12:35:41;19.70;62.30
62583;DHT22;48641;51.676;5.808;2023-05-07T12:38:14;19.70;62.30
62583;DHT22;48641;51.676;5.808;2023-05-07T12:40:45;19.70;62.40
62583;DHT22;48641;51.676;5.808;2023-05-07T12:43:18;19.70;62.40
62583;DHT22;48641;51.676;5.808;2023-05-07T12:45:46;19.70;62.40
62583;DHT22;48641;51.676;5.808;2023-05-07T12:48:12;19.60;62.40
62583;DHT22;48641;51.676;5.808;2023-05-07T12:50:38;19.60;62.50
62583;DHT22;48641;51.676;5.808;2023-05-07T12:53:04;19.60;62.40
62583;DHT22;48641;51.676;5.808;2023-05-07T12:58:08;19.70;62.50
62583;DHT22;48641;51.676;5.808;2023-05-07T13:00:37;19.70;62.60
62583;DHT22;48641;51.676;5.808;2023-05-07T13:03:03;19.70;62.60
62583;DHT22;48641;51.676;5.808;2023-05-07T13:05:29;19.70;62.60
62583;DHT22;48641;51.676;5.808;2023-05-07T13:07:58;19.70;62.60
62583;DHT22;48641;51.676;5.808;2023-05-07T13:10:23;19.70;62.50
62583;DHT22;48641;51.676;5.808;2023-05-07T13:12:50;19.70;62.50
62583;DHT22;48641;51.676;5.808;2023-05-07T13:15:16;19.60;62.70
62583;DHT22;48641;51.676;5.808;2023-05-07T13:17:42;19.70;62.70
62583;DHT22;48641;51.676;5.808;2023-05-07T13:20:11;19.70;62.70
62583;DHT22;48641;51.676;5.808;2023-05-07T13:22:38;19.80;62.70
62583;DHT22;48641;51.676;5.808;2023-05-07T13:25:04;19.80;62.70
62583;DHT22;48641;51.676;5.808;2023-05-07T13:27:30;19.70;62.50
62583;DHT22;48641;51.676;5.808;2023-05-07T13:29:56;19.80;62.60
62583;DHT22;48641;51.676;5.808;2023-05-07T13:32:22;19.80;62.60
62583;DHT22;48641;51.676;5.808;2023-05-07T13:34:48;19.80;62.60
62583;DHT22;48641;51.676;5.808;2023-05-07T13:37:14;19.80;62.60
62583;DHT22;48641;51.676;5.808;2023-05-07T13:39:39;19.80;62.50
62583;DHT22;48641;51.676;5.808;2023-05-07T13:42:06;19.70;62.50
62583;DHT22;48641;51.676;5.808;2023-05-07T13:44:32;19.80;62.60
62583;DHT22;48641;51.676;5.808;2023-05-07T13:46:58;19.70;62.60
62583;DHT22;48641;51.676;5.808;2023-05-07T13:49:24;19.70;62.50
62583;DHT22;48641;51.676;5.808;2023-05-07T13:51:49;19.70;62.60
62583;DHT22;48641;51.676;5.808;2023-05-07T13:54:15;19.70;62.60
62583;DHT22;48641;51.676;5.808;2023-05-07T13:56:41;19.70;62.60
62583;DHT22;48641;51.676;5.808;2023-05-07T13:59:07;19.70;62.70
62583;DHT22;48641;51.676;5.808;2023-05-07T14:01:33;19.80;62.70
62583;DHT22;48641;51.676;5.808;2023-05-07T14:03:59;19.80;62.70
62583;DHT22;48641;51.676;5.808;2023-05-07T14:06:25;19.80;62.70
62583;DHT22;48641;51.676;5.808;2023-05-07T14:08:50;19.80;62.70
62583;DHT22;48641;51.676;5.808;2023-05-07T14:11:18;19.80;62.70
62583;DHT22;48641;51.676;5.808;2023-05-07T14:13:44;19.80;62.70
62583;DHT22;48641;51.676;5.808;2023-05-07T14:16:10;19.90;62.70
62583;DHT22;48641;51.676;5.808;2023-05-07T14:18:35;19.90;62.70
62583;DHT22;48641;51.676;5.808;2023-05-07T14:21:02;19.90;62.60
62583;DHT22;48641;51.676;5.808;2023-05-07T14:23:28;19.80;62.50
62583;DHT22;48641;51.676;5.808;2023-05-07T14:25:53;19.90;62.60
62583;DHT22;48641;51.676;5.808;2023-05-07T14:28:19;19.90;62.60
62583;DHT22;48641;51.676;5.808;2023-05-07T14:30:45;19.90;62.60
62583;DHT22;48641;51.676;5.808;2023-05-07T14:33:10;19.80;62.60
62583;DHT22;48641;51.676;5.808;2023-05-07T14:35:36;19.90;62.70
62583;DHT22;48641;51.676;5.808;2023-05-07T14:38:01;19.90;62.70
62583;DHT22;48641;51.676;5.808;2023-05-07T14:40:27;19.90;62.70
62583;DHT22;48641;51.676;5.808;2023-05-07T14:42:53;19.90;62.70
62583;DHT22;48641;51.676;5.808;2023-05-07T14:45:21;19.80;62.70
62583;DHT22;48641;51.676;5.808;2023-05-07T14:47:46;19.80;62.70
62583;DHT22;48641;51.676;5.808;2023-05-07T14:50:12;19.80;62.70
62583;DHT22;48641;51.676;5.808;2023-05-07T14:52:38;19.80;62.70
62583;DHT22;48641;51.676;5.808;2023-05-07T14:55:04;19.80;62.80
62583;DHT22;48641;51.676;5.808;2023-05-07T14:57:30;19.80;62.80
62583;DHT22;48641;51.676;5.808;2023-05-07T14:59:58;19.80;62.90
62583;DHT22;48641;51.676;5.808;2023-05-07T15:02:23;19.80;62.90
62583;DHT22;48641;51.676;5.808;2023-05-07T15:04:49;19.80;62.90
62583;DHT22;48641;51.676;5.808;2023-05-07T15:07:15;19.80;62.90
62583;DHT22;48641;51.676;5.808;2023-05-07T15:09:42;19.90;62.90
62583;DHT22;48641;51.676;5.808;2023-05-07T15:12:07;19.90;63.00
62583;DHT22;48641;51.676;5.808;2023-05-07T15:14:34;19.90;62.90
62583;DHT22;48641;51.676;5.808;2023-05-07T15:17:00;20.00;62.90
62583;DHT22;48641;51.676;5.808;2023-05-07T15:19:26;20.00;62.90
62583;DHT22;48641;51.676;5.808;2023-05-07T15:21:57;20.10;62.80
62583;DHT22;48641;51.676;5.808;2023-05-07T15:24:23;20.10;62.80
62583;DHT22;48641;51.676;5.808;2023-05-07T15:26:51;20.20;63.70
62583;DHT22;48641;51.676;5.808;2023-05-07T15:29:17;20.20;62.60
62583;DHT22;48641;51.676;5.808;2023-05-07T15:31:42;20.20;62.50
62583;DHT22;48641;51.676;5.808;2023-05-07T15:34:08;20.30;62.50
62583;DHT22;48641;51.676;5.808;2023-05-07T15:36:34;20.30;62.40